Kuching, Malaysia
Current Conditions -  °F | °C
As of 8:00 PM on Friday 28 Nov 2014 (Local Time) from WBGG Reporting Station
Broken Clouds Broken Clouds  
Wind Chill: 77°   Ceiling: 15000
Heat Index: 78°   Visibility: 6mi
Dew Point: 73°   Wind: 6mph
Humidity: 89%   Direction: 280°W
Pressure: 29.8"   Gusts: NA
Location:  1.55°N, 110.34°E
Report Text: WBGG 281200Z 28005KT 230V330 9999 SCT020 BKN150 25/23 Q1009 NOSIG
Loading
Personal Weather Stations






























Interactive Weather Map New forecast layout! Learn more

10-Day Weather Forecast

Advertisements
Track Severe Weather on mobile